sensor_id;sensor_type;location;lat;lon;timestamp;pressure;altitude;pressure_sealevel;temperature;humidity
29169;BME280;16219;42.864;23.360;2023-03-24T00:00:02;96001.75;;;5.55;100.00
29169;BME280;16219;42.864;23.360;2023-03-24T00:02:34;95999.09;;;5.60;100.00
29169;BME280;16219;42.864;23.360;2023-03-24T00:05:02;96001.47;;;5.62;100.00
29169;BME280;16219;42.864;23.360;2023-03-24T00:07:30;96000.38;;;5.68;100.00
29169;BME280;16219;42.864;23.360;2023-03-24T00:09:58;96002.69;;;5.74;100.00
29169;BME280;16219;42.864;23.360;2023-03-24T00:12:26;96002.41;;;5.76;100.00
29169;BME280;16219;42.864;23.360;2023-03-24T00:14:53;96001.72;;;5.65;100.00
29169;BME280;16219;42.864;23.360;2023-03-24T00:17:21;96000.81;;;5.41;100.00
29169;BME280;16219;42.864;23.360;2023-03-24T00:19:51;95991.13;;;5.41;100.00
29169;BME280;16219;42.864;23.360;2023-03-24T00:22:20;95997.06;;;5.52;100.00
29169;BME280;16219;42.864;23.360;2023-03-24T00:24:47;95992.06;;;5.56;100.00
29169;BME280;16219;42.864;23.360;2023-03-24T00:27:14;95993.41;;;5.53;100.00
29169;BME280;16219;42.864;23.360;2023-03-24T00:29:42;95993.41;;;5.53;100.00
29169;BME280;16219;42.864;23.360;2023-03-24T00:32:09;95985.56;;;5.53;100.00
29169;BME280;16219;42.864;23.360;2023-03-24T00:34:37;95983.72;;;5.54;100.00
29169;BME280;16219;42.864;23.360;2023-03-24T00:37:05;95981.69;;;5.45;100.00
29169;BME280;16219;42.864;23.360;2023-03-24T00:39:32;95984.81;;;5.47;100.00
29169;BME280;16219;42.864;23.360;2023-03-24T00:42:00;95990.03;;;5.53;100.00
29169;BME280;16219;42.864;23.360;2023-03-24T00:44:28;95977.47;;;5.49;100.00
29169;BME280;16219;42.864;23.360;2023-03-24T00:46:55;95978.50;;;5.54;100.00
29169;BME280;16219;42.864;23.360;2023-03-24T00:49:23;95971.69;;;5.53;100.00
29169;BME280;16219;42.864;23.360;2023-03-24T00:52:09;95973.84;;;5.45;100.00
29169;BME280;16219;42.864;23.360;2023-03-24T00:54:36;95977.75;;;5.48;100.00
29169;BME280;16219;42.864;23.360;2023-03-24T00:57:04;95986.44;;;5.38;100.00
29169;BME280;16219;42.864;23.360;2023-03-24T00:59:32;95980.94;;;5.40;100.00
29169;BME280;16219;42.864;23.360;2023-03-24T01:02:07;95980.22;;;5.29;100.00
29169;BME280;16219;42.864;23.360;2023-03-24T01:04:37;95980.81;;;5.16;100.00
29169;BME280;16219;42.864;23.360;2023-03-24T01:07:04;95980.25;;;5.24;100.00
29169;BME280;16219;42.864;23.360;2023-03-24T01:09:34;95988.59;;;5.26;100.00
29169;BME280;16219;42.864;23.360;2023-03-24T01:12:02;95977.66;;;5.24;100.00
29169;BME280;16219;42.864;23.360;2023-03-24T01:14:30;95982.34;;;5.27;100.00
29169;BME280;16219;42.864;23.360;2023-03-24T01:16:57;95969.78;;;5.24;100.00
29169;BME280;16219;42.864;23.360;2023-03-24T01:19:25;95973.75;;;5.16;100.00
29169;BME280;16219;42.864;23.360;2023-03-24T01:21:53;95968.31;;;5.08;100.00
29169;BME280;16219;42.864;23.360;2023-03-24T01:24:21;95969.06;;;5.18;100.00
29169;BME280;16219;42.864;23.360;2023-03-24T01:26:51;95972.44;;;5.14;100.00
29169;BME280;16219;42.864;23.360;2023-03-24T01:29:18;95970.94;;;5.08;100.00
29169;BME280;16219;42.864;23.360;2023-03-24T01:31:46;95979.06;;;5.06;100.00
29169;BME280;16219;42.864;23.360;2023-03-24T01:34:13;95965.22;;;5.06;100.00
29169;BME280;16219;42.864;23.360;2023-03-24T01:36:40;95974.44;;;4.88;100.00
29169;BME280;16219;42.864;23.360;2023-03-24T01:39:07;95968.78;;;4.65;100.00
29169;BME280;16219;42.864;23.360;2023-03-24T01:41:36;95963.28;;;4.72;100.00
29169;BME280;16219;42.864;23.360;2023-03-24T01:44:24;95967.66;;;4.82;100.00
29169;BME280;16219;42.864;23.360;2023-03-24T01:46:52;95965.56;;;4.89;100.00
29169;BME280;16219;42.864;23.360;2023-03-24T01:49:21;95971.53;;;4.94;100.00
29169;BME280;16219;42.864;23.360;2023-03-24T01:51:53;95971.28;;;4.91;100.00
29169;BME280;16219;42.864;23.360;2023-03-24T01:54:23;95970.53;;;4.85;100.00
29169;BME280;16219;42.864;23.360;2023-03-24T01:56:58;95971.09;;;4.77;100.00
29169;BME280;16219;42.864;23.360;2023-03-24T01:59:32;95973.16;;;4.85;100.00
29169;BME280;16219;42.864;23.360;2023-03-24T02:02:17;95976.28;;;4.82;100.00
29169;BME280;16219;42.864;23.360;2023-03-24T02:04:58;95975.81;;;4.70;100.00
29169;BME280;16219;42.864;23.360;2023-03-24T02:07:36;95973.22;;;4.65;100.00
29169;BME280;16219;42.864;23.360;2023-03-24T02:10:08;95969.03;;;4.69;100.00
29169;BME280;16219;42.864;23.360;2023-03-24T02:12:37;95967.47;;;4.68;100.00
29169;BME280;16219;42.864;23.360;2023-03-24T02:15:09;95972.94;;;4.66;100.00
29169;BME280;16219;42.864;23.360;2023-03-24T02:17:55;95971.66;;;4.64;100.00
29169;BME280;16219;42.864;23.360;2023-03-24T02:20:54;95974.28;;;4.59;100.00
29169;BME280;16219;42.864;23.360;2023-03-24T02:26:48;95964.63;;;4.59;100.00
29169;BME280;16219;42.864;23.360;2023-03-24T02:33:14;95969.06;;;4.54;100.00
29169;BME280;16219;42.864;23.360;2023-03-24T02:36:10;95962.56;;;4.56;100.00
29169;BME280;16219;42.864;23.360;2023-03-24T02:39:13;95949.75;;;4.55;100.00
29169;BME280;16219;42.864;23.360;2023-03-24T02:41:45;95944.53;;;4.49;100.00
29169;BME280;16219;42.864;23.360;2023-03-24T02:44:19;95946.59;;;4.58;100.00
29169;BME280;16219;42.864;23.360;2023-03-24T02:46:53;95955.00;;;4.55;100.00
29169;BME280;16219;42.864;23.360;2023-03-24T02:49:27;95943.97;;;4.58;100.00
29169;BME280;16219;42.864;23.360;2023-03-24T02:51:59;95942.94;;;4.59;100.00
29169;BME280;16219;42.864;23.360;2023-03-24T02:54:40;95946.56;;;4.63;100.00
29169;BME280;16219;42.864;23.360;2023-03-24T02:57:16;95939.31;;;4.55;100.00
29169;BME280;16219;42.864;23.360;2023-03-24T03:00:25;95946.56;;;4.63;100.00
29169;BME280;16219;42.864;23.360;2023-03-24T03:03:07;95949.47;;;4.56;100.00
29169;BME280;16219;42.864;23.360;2023-03-24T03:05:38;95940.88;;;4.56;100.00
29169;BME280;16219;42.864;23.360;2023-03-24T03:08:08;95945.63;;;4.43;100.00
29169;BME280;16219;42.864;23.360;2023-03-24T03:10:42;95944.53;;;4.55;100.00
29169;BME280;16219;42.864;23.360;2023-03-24T03:13:15;95945.31;;;4.55;100.00
29169;BME280;16219;42.864;23.360;2023-03-24T03:15:47;95946.38;;;4.49;100.00
29169;BME280;16219;42.864;23.360;2023-03-24T03:18:19;95936.16;;;4.53;100.00
29169;BME280;16219;42.864;23.360;2023-03-24T03:20:53;95935.13;;;4.54;100.00
29169;BME280;16219;42.864;23.360;2023-03-24T03:23:26;95934.63;;;4.51;100.00
29169;BME280;16219;42.864;23.360;2023-03-24T03:26:00;95929.38;;;4.57;100.00
29169;BME280;16219;42.864;23.360;2023-03-24T03:28:32;95928.06;;;4.59;100.00
29169;BME280;16219;42.864;23.360;2023-03-24T03:31:04;95929.38;;;4.57;100.00
29169;BME280;16219;42.864;23.360;2023-03-24T03:33:36;95928.28;;;4.63;100.00
29169;BME280;16219;42.864;23.360;2023-03-24T03:36:07;95929.88;;;4.64;100.00
29169;BME280;16219;42.864;23.360;2023-03-24T03:38:44;95935.63;;;4.61;100.00
29169;BME280;16219;42.864;23.360;2023-03-24T03:41:15;95941.88;;;4.65;100.00
29169;BME280;16219;42.864;23.360;2023-03-24T03:43:46;95943.44;;;4.66;100.00
29169;BME280;16219;42.864;23.360;2023-03-24T03:46:15;95943.44;;;4.66;100.00
29169;BME280;16219;42.864;23.360;2023-03-24T03:48:44;95948.69;;;4.61;100.00
29169;BME280;16219;42.864;23.360;2023-03-24T03:51:12;95946.56;;;4.63;100.00
29169;BME280;16219;42.864;23.360;2023-03-24T03:53:54;95940.91;;;4.40;100.00
29169;BME280;16219;42.864;23.360;2023-03-24T03:56:27;95956.28;;;4.52;100.00
29169;BME280;16219;42.864;23.360;2023-03-24T03:59:24;95950.00;;;4.53;100.00
29169;BME280;16219;42.864;23.360;2023-03-24T04:01:53;95944.81;;;4.48;100.00
29169;BME280;16219;42.864;23.360;2023-03-24T04:07:40;95941.94;;;4.44;100.00
29169;BME280;16219;42.864;23.360;2023-03-24T04:13:36;95948.72;;;4.45;100.00
29169;BME280;16219;42.864;23.360;2023-03-24T04:16:26;95945.63;;;4.43;100.00
29169;BME280;16219;42.864;23.360;2023-03-24T04:19:24;95948.25;;;4.38;100.00
29169;BME280;16219;42.864;23.360;2023-03-24T04:22:05;95942.78;;;4.35;100.00
29169;BME280;16219;42.864;23.360;2023-03-24T04:24:53;95949.56;;;4.36;100.00
29169;BME280;16219;42.864;23.360;2023-03-24T04:27:32;95950.84;;;4.33;100.00
29169;BME280;16219;42.864;23.360;2023-03-24T04:30:11;95945.66;;;4.28;100.00
29169;BME280;16219;42.864;23.360;2023-03-24T04:32:45;95947.75;;;4.26;100.00
29169;BME280;16219;42.864;23.360;2023-03-24T04:35:23;95948.53;;;4.26;100.00
29169;BME280;16219;42.864;23.360;2023-03-24T04:38:13;95946.72;;;4.27;100.00
29169;BME280;16219;42.864;23.360;2023-03-24T04:40:49;95957.69;;;4.29;100.00
29169;BME280;16219;42.864;23.360;2023-03-24T04:43:24;95959.50;;;4.34;100.00
29169;BME280;16219;42.864;23.360;2023-03-24T04:45:55;95973.34;;;4.34;100.00
29169;BME280;16219;42.864;23.360;2023-03-24T04:48:32;95970.69;;;4.39;100.00
29169;BME280;16219;42.864;23.360;2023-03-24T04:51:08;95967.84;;;4.31;100.00
29169;BME280;16219;42.864;23.360;2023-03-24T04:53:59;95983.78;;;4.34;100.00
29169;BME280;16219;42.864;23.360;2023-03-24T04:56:37;95978.56;;;4.34;100.00
29169;BME280;16219;42.864;23.360;2023-03-24T04:59:09;95991.59;;;4.39;100.00
29169;BME280;16219;42.864;23.360;2023-03-24T05:01:39;95988.19;;;4.44;100.00
29169;BME280;16219;42.864;23.360;2023-03-24T05:04:33;95983.72;;;4.55;100.00
29169;BME280;16219;42.864;23.360;2023-03-24T05:07:13;95984.47;;;4.60;100.00
29169;BME280;16219;42.864;23.360;2023-03-24T05:09:45;95983.69;;;4.65;100.00
29169;BME280;16219;42.864;23.360;2023-03-24T05:12:12;95979.75;;;4.62;100.00
29169;BME280;16219;42.864;23.360;2023-03-24T05:15:00;95988.06;;;4.74;100.00
29169;BME280;16219;42.864;23.360;2023-03-24T05:17:29;95988.84;;;4.80;100.00
29169;BME280;16219;42.864;23.360;2023-03-24T05:19:56;95994.88;;;4.75;100.00
29169;BME280;16219;42.864;23.360;2023-03-24T05:22:24;95989.84;;;4.84;100.00
29169;BME280;16219;42.864;23.360;2023-03-24T05:24:51;95990.31;;;4.96;100.00
29169;BME280;16219;42.864;23.360;2023-03-24T05:27:18;95994.50;;;5.03;100.00
29169;BME280;16219;42.864;23.360;2023-03-24T05:29:46;96001.72;;;5.21;100.00
29169;BME280;16219;42.864;23.360;2023-03-24T05:32:19;95995.53;;;5.46;100.00
29169;BME280;16219;42.864;23.360;2023-03-24T05:34:48;95999.28;;;5.74;100.00
29169;BME280;16219;42.864;23.360;2023-03-24T05:37:22;95991.88;;;5.86;100.00
29169;BME280;16219;42.864;23.360;2023-03-24T05:39:50;96001.25;;;5.92;100.00
29169;BME280;16219;42.864;23.360;2023-03-24T05:42:37;96000.75;;;5.85;100.00
29169;BME280;16219;42.864;23.360;2023-03-24T05:45:06;95994.25;;;5.48;100.00
29169;BME280;16219;42.864;23.360;2023-03-24T05:47:33;96006.84;;;5.41;100.00
29169;BME280;16219;42.864;23.360;2023-03-24T05:50:02;95999.22;;;5.45;100.00
29169;BME280;16219;42.864;23.360;2023-03-24T05:52:30;96007.47;;;5.62;100.00
29169;BME280;16219;42.864;23.360;2023-03-24T05:55:12;96008.66;;;5.80;100.00
29169;BME280;16219;42.864;23.360;2023-03-24T05:57:41;96005.84;;;6.06;100.00
29169;BME280;16219;42.864;23.360;2023-03-24T06:00:09;96001.53;;;6.20;100.00
29169;BME280;16219;42.864;23.360;2023-03-24T06:02:49;95998.47;;;6.37;100.00
29169;BME280;16219;42.864;23.360;2023-03-24T06:05:26;95995.25;;;6.45;100.00
29169;BME280;16219;42.864;23.360;2023-03-24T06:07:54;95990.91;;;6.35;100.00
29169;BME280;16219;42.864;23.360;2023-03-24T06:10:25;95994.94;;;6.51;100.00
29169;BME280;16219;42.864;23.360;2023-03-24T06:12:53;95994.56;;;6.58;100.00
29169;BME280;16219;42.864;23.360;2023-03-24T06:15:22;95996.88;;;6.65;100.00
29169;BME280;16219;42.864;23.360;2023-03-24T06:17:55;95996.44;;;6.82;100.00
29169;BME280;16219;42.864;23.360;2023-03-24T06:20:33;96000.97;;;6.95;100.00
29169;BME280;16219;42.864;23.360;2023-03-24T06:23:04;95993.94;;;7.14;100.00
29169;BME280;16219;42.864;23.360;2023-03-24T06:25:38;95997.75;;;7.22;100.00
29169;BME280;16219;42.864;23.360;2023-03-24T06:28:20;96004.06;;;7.21;100.00
29169;BME280;16219;42.864;23.360;2023-03-24T06:30:52;95997.25;;;7.20;100.00
29169;BME280;16219;42.864;23.360;2023-03-24T06:33:29;96008.59;;;7.34;100.00
29169;BME280;16219;42.864;23.360;2023-03-24T06:35:59;96002.78;;;7.37;100.00
29169;BME280;16219;42.864;23.360;2023-03-24T06:38:28;96000.88;;;7.43;100.00
29169;BME280;16219;42.864;23.360;2023-03-24T06:40:59;95993.63;;;7.54;100.00
29169;BME280;16219;42.864;23.360;2023-03-24T06:43:26;95999.84;;;7.76;100.00
29169;BME280;16219;42.864;23.360;2023-03-24T06:45:53;95999.09;;;7.90;100.00
29169;BME280;16219;42.864;23.360;2023-03-24T06:48:22;95997.09;;;8.00;100.00
29169;BME280;16219;42.864;23.360;2023-03-24T06:50:54;95993.38;;;8.20;100.00
29169;BME280;16219;42.864;23.360;2023-03-24T06:53:23;95998.56;;;8.39;100.00
29169;BME280;16219;42.864;23.360;2023-03-24T06:55:50;96004.03;;;8.57;100.00
29169;BME280;16219;42.864;23.360;2023-03-24T06:58:19;95996.16;;;8.70;100.00
29169;BME280;16219;42.864;23.360;2023-03-24T07:00:58;96000.81;;;8.87;100.00
29169;BME280;16219;42.864;23.360;2023-03-24T07:03:39;96000.44;;;8.94;100.00
29169;BME280;16219;42.864;23.360;2023-03-24T07:06:16;95999.44;;;9.04;100.00
29169;BME280;16219;42.864;23.360;2023-03-24T07:08:49;95999.25;;;9.14;100.00
29169;BME280;16219;42.864;23.360;2023-03-24T07:11:17;95994.72;;;9.28;100.00
29169;BME280;16219;42.864;23.360;2023-03-24T07:13:51;96002.09;;;9.40;100.00
29169;BME280;16219;42.864;23.360;2023-03-24T07:16:18;95989.91;;;9.44;100.00
29169;BME280;16219;42.864;23.360;2023-03-24T07:18:50;95996.78;;;9.54;100.00
29169;BME280;16219;42.864;23.360;2023-03-24T07:21:17;95992.25;;;9.68;100.00
29169;BME280;16219;42.864;23.360;2023-03-24T07:23:49;95991.59;;;9.85;100.00
29169;BME280;16219;42.864;23.360;2023-03-24T07:26:19;95997.16;;;10.06;100.00
29169;BME280;16219;42.864;23.360;2023-03-24T07:28:46;96000.50;;;10.20;100.00
29169;BME280;16219;42.864;23.360;2023-03-24T07:31:22;95988.03;;;10.34;100.00
29169;BME280;16219;42.864;23.360;2023-03-24T07:33:56;95986.34;;;10.38;100.00
29169;BME280;16219;42.864;23.360;2023-03-24T07:36:24;95998.09;;;10.63;100.00
29169;BME280;16219;42.864;23.360;2023-03-24T07:38:52;95994.13;;;10.83;100.00
29169;BME280;16219;42.864;23.360;2023-03-24T07:41:26;95977.06;;;10.89;100.00
29169;BME280;16219;42.864;23.360;2023-03-24T07:43:57;95989.69;;;11.10;100.00
29169;BME280;16219;42.864;23.360;2023-03-24T07:46:30;95981.78;;;11.27;100.00
29169;BME280;16219;42.864;23.360;2023-03-24T07:48:57;95982.72;;;11.48;100.00
29169;BME280;16219;42.864;23.360;2023-03-24T07:51:24;95978.38;;;11.61;100.00
29169;BME280;16219;42.864;23.360;2023-03-24T07:53:57;95970.28;;;11.75;100.00
29169;BME280;16219;42.864;23.360;2023-03-24T07:56:31;95973.38;;;12.03;100.00
29169;BME280;16219;42.864;23.360;2023-03-24T07:59:00;95965.56;;;12.24;100.00
29169;BME280;16219;42.864;23.360;2023-03-24T08:01:40;95967.81;;;12.43;100.00
29169;BME280;16219;42.864;23.360;2023-03-24T08:04:10;95970.22;;;12.65;100.00
29169;BME280;16219;42.864;23.360;2023-03-24T08:07:00;95969.69;;;12.81;100.00
29169;BME280;16219;42.864;23.360;2023-03-24T08:09:30;95966.78;;;12.94;100.00
29169;BME280;16219;42.864;23.360;2023-03-24T08:11:57;95969.16;;;12.96;100.00
29169;BME280;16219;42.864;23.360;2023-03-24T08:14:24;95959.22;;;13.14;100.00
29169;BME280;16219;42.864;23.360;2023-03-24T08:16:51;95961.25;;;13.38;100.00
29169;BME280;16219;42.864;23.360;2023-03-24T08:19:18;95964.41;;;13.31;100.00
29169;BME280;16219;42.864;23.360;2023-03-24T08:21:45;95963.25;;;13.41;100.00
29169;BME280;16219;42.864;23.360;2023-03-24T08:24:12;95957.09;;;13.49;100.00
29169;BME280;16219;42.864;23.360;2023-03-24T08:26:40;95944.19;;;13.47;100.00
29169;BME280;16219;42.864;23.360;2023-03-24T08:29:07;95948.44;;;13.61;100.00
29169;BME280;16219;42.864;23.360;2023-03-24T08:31:35;95951.53;;;13.63;100.00
29169;BME280;16219;42.864;23.360;2023-03-24T08:34:02;95946.16;;;13.71;100.00
29169;BME280;16219;42.864;23.360;2023-03-24T08:36:31;95942.66;;;13.80;100.00
29169;BME280;16219;42.864;23.360;2023-03-24T08:38:58;95938.88;;;13.68;100.00
29169;BME280;16219;42.864;23.360;2023-03-24T08:41:25;95929.03;;;13.69;100.00
29169;BME280;16219;42.864;23.360;2023-03-24T08:43:56;95932.38;;;13.78;100.00
29169;BME280;16219;42.864;23.360;2023-03-24T08:46:23;95927.31;;;13.85;100.00
29169;BME280;16219;42.864;23.360;2023-03-24T08:48:50;95928.22;;;14.01;100.00
29169;BME280;16219;42.864;23.360;2023-03-24T08:51:18;95926.59;;;14.09;100.00
29169;BME280;16219;42.864;23.360;2023-03-24T08:53:45;95919.88;;;14.24;100.00
29169;BME280;16219;42.864;23.360;2023-03-24T08:56:12;95915.91;;;14.42;100.00
29169;BME280;16219;42.864;23.360;2023-03-24T08:58:39;95906.31;;;14.50;100.00
29169;BME280;16219;42.864;23.360;2023-03-24T09:01:07;95901.91;;;14.54;100.00
29169;BME280;16219;42.864;23.360;2023-03-24T09:03:34;95898.78;;;14.52;100.00
29169;BME280;16219;42.864;23.360;2023-03-24T09:06:04;95902.22;;;14.53;100.00
29169;BME280;16219;42.864;23.360;2023-03-24T09:08:31;95899.66;;;14.68;100.00
29169;BME280;16219;42.864;23.360;2023-03-24T09:10:58;95895.69;;;14.74;100.00
29169;BME280;16219;42.864;23.360;2023-03-24T09:13:25;95892.47;;;14.81;100.00
29169;BME280;16219;42.864;23.360;2023-03-24T09:15:57;95890.13;;;14.92;100.00
29169;BME280;16219;42.864;23.360;2023-03-24T09:18:26;95889.78;;;15.06;100.00
29169;BME280;16219;42.864;23.360;2023-03-24T09:20:53;95882.97;;;15.20;100.00
29169;BME280;16219;42.864;23.360;2023-03-24T09:23:20;95884.25;;;15.39;100.00
29169;BME280;16219;42.864;23.360;2023-03-24T09:25:48;95877.41;;;15.54;100.00
29169;BME280;16219;42.864;23.360;2023-03-24T09:28:15;95878.53;;;15.53;100.00
29169;BME280;16219;42.864;23.360;2023-03-24T09:30:43;95874.16;;;15.72;100.00
29169;BME280;16219;42.864;23.360;2023-03-24T09:33:10;95877.78;;;15.96;100.00
29169;BME280;16219;42.864;23.360;2023-03-24T09:35:40;95864.47;;;16.12;97.55
29169;BME280;16219;42.864;23.360;2023-03-24T09:38:07;95872.97;;;16.17;100.00
29169;BME280;16219;42.864;23.360;2023-03-24T09:40:38;95858.81;;;16.29;100.00
29169;BME280;16219;42.864;23.360;2023-03-24T09:43:08;95861.78;;;16.43;98.15
29169;BME280;16219;42.864;23.360;2023-03-24T09:45:46;95851.75;;;16.53;96.33
29169;BME280;16219;42.864;23.360;2023-03-24T09:48:18;95857.75;;;16.49;90.46
29169;BME280;16219;42.864;23.360;2023-03-24T09:50:52;95844.72;;;16.44;94.27
29169;BME280;16219;42.864;23.360;2023-03-24T09:53:27;95848.47;;;16.75;93.87
29169;BME280;16219;42.864;23.360;2023-03-24T09:56:02;95846.72;;;16.83;96.54
29169;BME280;16219;42.864;23.360;2023-03-24T09:58:31;95855.28;;;16.92;89.57
29169;BME280;16219;42.864;23.360;2023-03-24T10:00:58;95850.22;;;17.06;83.61
29169;BME280;16219;42.864;23.360;2023-03-24T10:06:07;95808.56;;;16.98;71.74
29169;BME280;16219;42.864;23.360;2023-03-24T10:08:36;95780.03;;;16.79;77.76
29169;BME280;16219;42.864;23.360;2023-03-24T10:13:50;95805.41;;;17.31;63.60
29169;BME280;16219;42.864;23.360;2023-03-24T10:16:24;95812.84;;;17.22;54.64
29169;BME280;16219;42.864;23.360;2023-03-24T10:18:58;95786.38;;;17.33;70.86
29169;BME280;16219;42.864;23.360;2023-03-24T10:21:32;95812.03;;;17.60;66.06
29169;BME280;16219;42.864;23.360;2023-03-24T10:24:09;95810.81;;;17.77;59.60
29169;BME280;16219;42.864;23.360;2023-03-24T10:26:45;95809.19;;;17.72;77.08
29169;BME280;16219;42.864;23.360;2023-03-24T10:29:22;95806.19;;;17.74;56.10
29169;BME280;16219;42.864;23.360;2023-03-24T10:31:53;95807.25;;;17.92;59.18
29169;BME280;16219;42.864;23.360;2023-03-24T10:34:26;95802.78;;;18.00;56.98
29169;BME280;16219;42.864;23.360;2023-03-24T10:36:55;95798.47;;;18.15;57.79
29169;BME280;16219;42.864;23.360;2023-03-24T10:47:24;95714.47;;;17.59;55.47
29169;BME280;16219;42.864;23.360;2023-03-24T10:49:54;95752.19;;;18.07;54.59
29169;BME280;16219;42.864;23.360;2023-03-24T10:55:02;95731.97;;;18.06;54.09
29169;BME280;16219;42.864;23.360;2023-03-24T11:00:06;95758.00;;;18.39;53.74
29169;BME280;16219;42.864;23.360;2023-03-24T11:02:40;95784.69;;;18.66;51.69
29169;BME280;16219;42.864;23.360;2023-03-24T11:05:13;95745.97;;;18.56;51.37
29169;BME280;16219;42.864;23.360;2023-03-24T11:07:43;95782.75;;;18.93;51.22
29169;BME280;16219;42.864;23.360;2023-03-24T11:10:15;95778.16;;;18.93;49.02
29169;BME280;16219;42.864;23.360;2023-03-24T11:12:58;95777.84;;;18.98;50.09
29169;BME280;16219;42.864;23.360;2023-03-24T11:15:28;95761.97;;;18.79;48.86
29169;BME280;16219;42.864;23.360;2023-03-24T11:17:57;95756.44;;;18.95;49.03
29169;BME280;16219;42.864;23.360;2023-03-24T11:20:29;95750.06;;;19.07;50.07
29169;BME280;16219;42.864;23.360;2023-03-24T11:23:02;95754.03;;;19.20;51.34
29169;BME280;16219;42.864;23.360;2023-03-24T11:25:34;95748.00;;;19.30;47.91
29169;BME280;16219;42.864;23.360;2023-03-24T11:28:05;95738.72;;;19.17;46.32
29169;BME280;16219;42.864;23.360;2023-03-24T11:30:42;95725.81;;;19.26;48.47
29169;BME280;16219;42.864;23.360;2023-03-24T11:33:17;95729.59;;;19.62;49.35
29169;BME280;16219;42.864;23.360;2023-03-24T11:35:45;95726.22;;;19.69;45.67
29169;BME280;16219;42.864;23.360;2023-03-24T11:38:15;95720.91;;;19.72;48.63
29169;BME280;16219;42.864;23.360;2023-03-24T11:40:54;95714.63;;;19.58;44.47
29169;BME280;16219;42.864;23.360;2023-03-24T11:43:24;95711.72;;;19.73;46.38
29169;BME280;16219;42.864;23.360;2023-03-24T11:45:56;95711.75;;;19.77;43.96
29169;BME280;16219;42.864;23.360;2023-03-24T11:48:29;95709.59;;;19.97;48.14
29169;BME280;16219;42.864;23.360;2023-03-24T11:50:58;95706.56;;;20.02;44.51
29169;BME280;16219;42.864;23.360;2023-03-24T11:53:29;95702.81;;;20.10;44.23
29169;BME280;16219;42.864;23.360;2023-03-24T11:56:03;95697.41;;;20.07;42.59
29169;BME280;16219;42.864;23.360;2023-03-24T11:58:35;95683.75;;;20.22;43.62
29169;BME280;16219;42.864;23.360;2023-03-24T12:01:11;95690.59;;;20.20;42.36
29169;BME280;16219;42.864;23.360;2023-03-24T12:03:54;95687.44;;;20.04;43.89
29169;BME280;16219;42.864;23.360;2023-03-24T12:06:34;95683.53;;;19.90;43.80
29169;BME280;16219;42.864;23.360;2023-03-24T12:09:12;95681.28;;;19.96;42.83
29169;BME280;16219;42.864;23.360;2023-03-24T12:12:02;95671.44;;;20.14;41.64
29169;BME280;16219;42.864;23.360;2023-03-24T12:14:42;95669.19;;;20.23;41.28
29169;BME280;16219;42.864;23.360;2023-03-24T12:17:14;95671.56;;;20.36;39.30
29169;BME280;16219;42.864;23.360;2023-03-24T12:20:03;95663.94;;;20.45;42.03
29169;BME280;16219;42.864;23.360;2023-03-24T12:22:44;95662.09;;;20.63;41.00
29169;BME280;16219;42.864;23.360;2023-03-24T12:25:26;95661.38;;;20.70;40.29
29169;BME280;16219;42.864;23.360;2023-03-24T12:28:05;95648.75;;;20.81;37.88
29169;BME280;16219;42.864;23.360;2023-03-24T12:30:45;95639.97;;;20.91;41.03
29169;BME280;16219;42.864;23.360;2023-03-24T12:33:26;95642.28;;;20.96;39.51
29169;BME280;16219;42.864;23.360;2023-03-24T12:36:17;95633.50;;;21.03;37.89
29169;BME280;16219;42.864;23.360;2023-03-24T12:38:58;95614.66;;;20.85;39.69
29169;BME280;16219;42.864;23.360;2023-03-24T12:41:43;95630.00;;;20.88;40.46
29169;BME280;16219;42.864;23.360;2023-03-24T12:44:34;95626.53;;;20.81;37.84
29169;BME280;16219;42.864;23.360;2023-03-24T12:47:11;95628.84;;;20.89;39.30
29169;BME280;16219;42.864;23.360;2023-03-24T12:49:56;95622.75;;;21.00;39.73
29169;BME280;16219;42.864;23.360;2023-03-24T12:52:42;95623.91;;;21.06;40.01
29169;BME280;16219;42.864;23.360;2023-03-24T12:55:13;95612.78;;;21.14;39.41
29169;BME280;16219;42.864;23.360;2023-03-24T12:57:46;95612.78;;;21.11;37.33
29169;BME280;16219;42.864;23.360;2023-03-24T13:00:19;95608.19;;;21.18;37.49
29169;BME280;16219;42.864;23.360;2023-03-24T13:02:51;95605.53;;;21.22;39.28
29169;BME280;16219;42.864;23.360;2023-03-24T13:05:22;95605.91;;;21.24;38.63
29169;BME280;16219;42.864;23.360;2023-03-24T13:07:56;95597.47;;;21.22;37.52
29169;BME280;16219;42.864;23.360;2023-03-24T13:10:28;95594.78;;;21.29;38.41
29169;BME280;16219;42.864;23.360;2023-03-24T13:12:59;95594.03;;;21.32;39.06
29169;BME280;16219;42.864;23.360;2023-03-24T13:15:33;95593.63;;;21.30;39.12
29169;BME280;16219;42.864;23.360;2023-03-24T13:18:09;95592.91;;;21.33;36.84
29169;BME280;16219;42.864;23.360;2023-03-24T13:20:40;95592.13;;;21.29;37.04
29169;BME280;16219;42.864;23.360;2023-03-24T13:23:29;95585.97;;;21.18;37.17
29169;BME280;16219;42.864;23.360;2023-03-24T13:26:05;95587.13;;;21.10;38.10
29169;BME280;16219;42.864;23.360;2023-03-24T13:28:41;95585.97;;;20.96;36.09
29169;BME280;16219;42.864;23.360;2023-03-24T13:31:13;95581.75;;;20.95;37.36
29169;BME280;16219;42.864;23.360;2023-03-24T13:33:42;95574.47;;;21.10;39.16
29169;BME280;16219;42.864;23.360;2023-03-24T13:36:28;95574.47;;;21.21;35.98
29169;BME280;16219;42.864;23.360;2023-03-24T13:39:01;95576.00;;;21.29;37.12
29169;BME280;16219;42.864;23.360;2023-03-24T13:41:33;95568.34;;;21.24;36.39
29169;BME280;16219;42.864;23.360;2023-03-24T13:44:07;95566.81;;;21.23;37.85
29169;BME280;16219;42.864;23.360;2023-03-24T13:46:37;95563.00;;;21.38;35.97
29169;BME280;16219;42.864;23.360;2023-03-24T13:49:11;95555.31;;;21.30;38.34